createdAt,value
2023-02-14T00:00:58.075Z,59.07
2023-02-14T00:03:25.020Z,59.01
2023-02-14T00:05:51.796Z,58.96
2023-02-14T00:08:18.521Z,58.90
2023-02-14T00:10:45.215Z,59.10
2023-02-14T00:13:11.840Z,59.20
2023-02-14T00:15:38.509Z,59.03
2023-02-14T00:18:06.253Z,59.30
2023-02-14T00:20:33.050Z,59.12
2023-02-14T00:23:00.870Z,59.07
2023-02-14T00:25:27.683Z,59.31
2023-02-14T00:28:13.063Z,59.33
2023-02-14T00:30:39.884Z,59.18
2023-02-14T00:33:06.634Z,59.50
2023-02-14T00:35:33.356Z,59.26
2023-02-14T00:38:00.080Z,59.33
2023-02-14T00:40:27.533Z,59.30
2023-02-14T00:42:57.120Z,59.53
2023-02-14T00:45:24.057Z,59.58
2023-02-14T00:47:52.259Z,59.37
2023-02-14T00:50:18.960Z,59.57
2023-02-14T00:52:45.560Z,59.67
2023-02-14T00:55:12.184Z,59.47
2023-02-14T00:57:38.815Z,59.63
2023-02-14T01:00:06.294Z,59.67
2023-02-14T01:02:33.142Z,59.66
2023-02-14T01:05:00.189Z,59.68
2023-02-14T01:07:27.021Z,59.92
2023-02-14T01:09:53.798Z,59.77
2023-02-14T01:12:20.560Z,59.88
2023-02-14T01:14:47.153Z,59.76
2023-02-14T01:17:13.766Z,59.66
2023-02-14T01:19:42.532Z,59.84
2023-02-14T01:22:09.174Z,59.86
2023-02-14T01:24:35.971Z,59.83
2023-02-14T01:27:02.647Z,59.97
2023-02-14T01:29:29.627Z,59.93
2023-02-14T01:31:56.291Z,59.82
2023-02-14T01:34:25.087Z,59.81
2023-02-14T01:36:52.060Z,59.99
2023-02-14T01:39:19.012Z,60.10
2023-02-14T01:41:50.252Z,59.96
2023-02-14T01:44:16.952Z,59.83
2023-02-14T01:46:45.243Z,59.97
2023-02-14T01:49:20.407Z,60.06
2023-02-14T01:51:57.081Z,60.31
2023-02-14T01:54:27.295Z,60.19
2023-02-14T01:57:01.004Z,60.22
2023-02-14T01:59:32.233Z,60.28
2023-02-14T02:01:59.658Z,60.46
2023-02-14T02:04:35.254Z,60.26
2023-02-14T02:07:07.256Z,60.33
2023-02-14T02:09:49.014Z,60.34
2023-02-14T02:12:15.730Z,60.34
2023-02-14T02:14:43.604Z,60.32
2023-02-14T02:17:38.166Z,60.41
2023-02-14T02:20:30.138Z,60.17
2023-02-14T02:23:00.888Z,60.34
2023-02-14T02:25:39.560Z,60.30
2023-02-14T02:28:40.149Z,60.40
2023-02-14T02:31:21.976Z,60.17
2023-02-14T02:34:11.900Z,60.51
2023-02-14T02:37:23.516Z,60.43
2023-02-14T02:39:56.554Z,60.41
2023-02-14T02:42:38.466Z,60.45
2023-02-14T02:45:27.576Z,60.35
2023-02-14T02:48:00.259Z,60.45
2023-02-14T02:51:12.376Z,60.48
2023-02-14T02:53:46.264Z,60.44
2023-02-14T02:56:41.556Z,60.62
2023-02-14T02:59:25.455Z,60.47
2023-02-14T03:01:57.556Z,60.63
2023-02-14T03:04:44.602Z,60.30
2023-02-14T03:07:30.134Z,60.58
2023-02-14T03:09:59.504Z,60.63
2023-02-14T03:12:41.085Z,60.76
2023-02-14T03:15:26.113Z,60.52
2023-02-14T03:18:08.739Z,60.60
2023-02-14T03:21:02.832Z,60.82
2023-02-14T03:23:36.144Z,60.64
2023-02-14T03:26:33.793Z,60.77
2023-02-14T03:29:15.771Z,60.80
2023-02-14T03:32:11.465Z,60.68
2023-02-14T03:34:44.163Z,60.45
2023-02-14T03:37:28.697Z,60.72
2023-02-14T03:40:17.976Z,60.83
2023-02-14T03:42:55.820Z,60.89
2023-02-14T03:45:29.179Z,60.58
2023-02-14T03:48:01.204Z,60.76
2023-02-14T03:50:29.869Z,60.69
2023-02-14T03:52:59.098Z,60.86
2023-02-14T03:55:36.289Z,60.94
2023-02-14T03:58:16.473Z,60.57
2023-02-14T04:00:46.430Z,60.64
2023-02-14T04:03:15.520Z,60.74
2023-02-14T04:05:46.656Z,60.84
2023-02-14T04:08:23.788Z,60.98
2023-02-14T04:10:53.086Z,60.76
2023-02-14T04:13:20.652Z,60.75
2023-02-14T04:15:47.299Z,60.64
2023-02-14T04:18:32.627Z,60.63
2023-02-14T04:21:00.762Z,60.80
2023-02-14T04:23:27.713Z,60.75
2023-02-14T04:25:54.470Z,60.66
2023-02-14T04:28:21.250Z,60.78
2023-02-14T04:30:48.250Z,60.61
2023-02-14T04:33:15.064Z,60.87
2023-02-14T04:35:41.884Z,60.76
2023-02-14T04:38:08.718Z,60.92
2023-02-14T04:40:35.450Z,60.96
2023-02-14T04:43:02.280Z,60.90
2023-02-14T04:45:28.918Z,60.78
2023-02-14T04:47:55.599Z,60.84
2023-02-14T04:50:23.495Z,60.78
2023-02-14T04:52:50.169Z,60.79
2023-02-14T04:55:16.883Z,61.08
2023-02-14T04:57:44.253Z,61.12
2023-02-14T05:00:11.614Z,60.91
2023-02-14T05:02:38.208Z,61.04
2023-02-14T05:05:05.217Z,61.06
2023-02-14T05:07:31.933Z,60.97
2023-02-14T05:09:58.710Z,60.88
2023-02-14T05:12:25.735Z,60.67
2023-02-14T05:14:52.428Z,60.85
2023-02-14T05:17:19.116Z,60.86
2023-02-14T05:19:45.945Z,60.90
2023-02-14T05:22:12.758Z,60.86
2023-02-14T05:24:39.856Z,60.82
2023-02-14T05:27:07.644Z,61.25
2023-02-14T05:29:34.317Z,60.89
2023-02-14T05:32:01.200Z,60.97
2023-02-14T05:34:28.122Z,60.95
2023-02-14T05:36:55.041Z,60.79
2023-02-14T05:39:21.732Z,60.91
2023-02-14T05:41:48.535Z,61.03
2023-02-14T05:44:15.347Z,61.03
2023-02-14T05:46:41.957Z,60.80
2023-02-14T05:49:08.798Z,60.91
2023-02-14T05:51:35.381Z,60.77
2023-02-14T05:54:02.080Z,60.78
2023-02-14T05:56:28.826Z,61.04
2023-02-14T05:58:55.545Z,60.89
2023-02-14T06:01:22.552Z,61.19
2023-02-14T06:03:49.404Z,60.98
2023-02-14T06:06:16.246Z,60.88
2023-02-14T06:08:43.038Z,60.90
2023-02-14T06:11:09.765Z,60.97
2023-02-14T06:13:36.521Z,60.73
2023-02-14T06:16:04.804Z,60.88
2023-02-14T06:18:31.577Z,60.97
2023-02-14T06:20:58.635Z,61.18
2023-02-14T06:23:26.102Z,61.06
2023-02-14T06:25:52.828Z,61.32
2023-02-14T06:28:19.488Z,61.15
2023-02-14T06:30:47.403Z,61.21
2023-02-14T06:33:14.430Z,61.23
2023-02-14T06:35:41.006Z,61.05
2023-02-14T06:38:07.580Z,61.29
2023-02-14T06:40:34.325Z,61.25
2023-02-14T06:43:00.925Z,61.01
2023-02-14T06:45:27.768Z,61.05
2023-02-14T06:47:54.399Z,61.20
2023-02-14T06:50:21.133Z,61.13
2023-02-14T06:52:48.397Z,61.16
2023-02-14T06:55:15.094Z,61.04
2023-02-14T06:57:41.766Z,61.08
2023-02-14T07:00:10.152Z,61.15
2023-02-14T07:02:37.065Z,60.99
2023-02-14T07:05:03.991Z,60.95
2023-02-14T07:07:30.699Z,61.46
2023-02-14T07:09:57.375Z,61.04
2023-02-14T07:12:24.076Z,61.15
2023-02-14T07:14:50.882Z,61.13
2023-02-14T07:17:17.804Z,61.17
2023-02-14T07:19:44.390Z,61.20
2023-02-14T07:22:11.065Z,60.95
2023-02-14T07:24:37.794Z,60.90
2023-02-14T07:27:04.490Z,60.67
2023-02-14T07:29:31.357Z,60.58
2023-02-14T07:31:58.111Z,60.53
2023-02-14T07:34:24.848Z,60.37
2023-02-14T07:36:51.409Z,60.75
2023-02-14T07:39:18.006Z,60.68
2023-02-14T07:41:44.827Z,60.66
2023-02-14T07:44:11.920Z,60.74
2023-02-14T07:46:38.764Z,60.76
2023-02-14T07:49:05.677Z,60.77
2023-02-14T07:51:32.255Z,60.77
2023-02-14T07:53:59.087Z,60.58
2023-02-14T07:56:25.863Z,60.46
2023-02-14T07:58:52.520Z,59.85
2023-02-14T08:01:19.584Z,59.77
2023-02-14T08:03:49.533Z,59.69
2023-02-14T08:06:17.671Z,59.56
2023-02-14T08:08:45.317Z,59.10
2023-02-14T08:11:12.530Z,58.42
2023-02-14T08:13:39.359Z,58.38
2023-02-14T08:16:06.524Z,58.09
2023-02-14T08:18:40.027Z,57.35
2023-02-14T08:21:09.319Z,56.97
2023-02-14T08:23:37.330Z,56.82
2023-02-14T08:26:04.589Z,57.43
2023-02-14T08:28:33.161Z,56.60
2023-02-14T08:31:00.624Z,56.39
2023-02-14T08:33:27.612Z,56.33
2023-02-14T08:35:54.288Z,56.43
2023-02-14T08:38:21.007Z,56.20
2023-02-14T08:40:47.833Z,56.24
2023-02-14T08:43:15.447Z,55.98
2023-02-14T08:45:42.706Z,55.55
2023-02-14T08:48:12.226Z,55.47
2023-02-14T08:50:40.113Z,55.68
2023-02-14T08:53:12.267Z,55.49
2023-02-14T08:55:40.349Z,55.44
2023-02-14T08:58:07.775Z,55.23
2023-02-14T09:00:35.122Z,55.43
2023-02-14T09:03:02.287Z,55.33
2023-02-14T09:05:29.221Z,55.54
2023-02-14T09:07:56.619Z,55.36
2023-02-14T09:10:24.559Z,55.43
2023-02-14T09:12:52.227Z,55.54
2023-02-14T09:15:19.071Z,55.32
2023-02-14T09:17:45.776Z,55.40
2023-02-14T09:20:15.068Z,55.29
2023-02-14T09:22:42.094Z,55.35
2023-02-14T09:25:09.488Z,55.27
2023-02-14T09:27:36.244Z,54.94
2023-02-14T09:30:03.295Z,55.08
2023-02-14T09:32:30.281Z,54.99
2023-02-14T09:35:16.010Z,54.86
2023-02-14T09:37:42.707Z,54.88
2023-02-14T09:40:14.563Z,54.88
2023-02-14T09:43:00.744Z,54.87
2023-02-14T09:45:31.390Z,54.71
2023-02-14T09:48:07.413Z,54.65
2023-02-14T09:50:46.123Z,54.73
2023-02-14T09:53:15.900Z,54.74
2023-02-14T09:56:17.584Z,54.90
2023-02-14T09:59:01.723Z,54.96
2023-02-14T10:01:42.925Z,54.78
2023-02-14T10:04:27.870Z,54.79
2023-02-14T10:07:16.625Z,54.42
2023-02-14T10:10:18.780Z,54.33
2023-02-14T10:12:51.699Z,54.35
2023-02-14T10:15:26.204Z,54.40
2023-02-14T10:18:01.909Z,54.57
2023-02-14T10:20:37.600Z,54.36
2023-02-14T10:23:15.212Z,54.64
2023-02-14T10:25:51.043Z,54.60
2023-02-14T10:28:24.732Z,54.40
2023-02-14T10:31:22.625Z,54.51
2023-02-14T10:34:12.624Z,54.29
2023-02-14T10:37:03.856Z,54.46
2023-02-14T10:39:39.537Z,54.35
2023-02-14T10:42:26.973Z,54.19
2023-02-14T10:44:59.463Z,54.22
2023-02-14T10:47:38.065Z,54.17
2023-02-14T10:50:26.762Z,53.98
2023-02-14T10:53:05.177Z,54.18
2023-02-14T10:55:43.990Z,54.07
2023-02-14T10:58:15.268Z,53.89
2023-02-14T11:00:56.137Z,53.85
2023-02-14T11:03:23.979Z,53.78
2023-02-14T11:05:51.985Z,53.75
2023-02-14T11:08:32.323Z,53.92
2023-02-14T11:11:08.001Z,53.82
2023-02-14T11:13:37.711Z,53.67
2023-02-14T11:16:10.995Z,53.71
2023-02-14T11:18:41.301Z,53.38
2023-02-14T11:21:12.334Z,53.56
2023-02-14T11:23:44.656Z,53.53
2023-02-14T11:26:33.244Z,53.61
2023-02-14T11:29:11.061Z,53.76
2023-02-14T11:31:39.786Z,53.00
2023-02-14T11:34:36.785Z,53.46
2023-02-14T11:37:16.099Z,53.32
2023-02-14T11:39:43.019Z,52.97
2023-02-14T11:42:12.543Z,53.13
2023-02-14T11:44:54.839Z,53.22
2023-02-14T11:47:30.319Z,53.27
2023-02-14T11:50:20.269Z,53.20
2023-02-14T11:52:52.084Z,53.22
2023-02-14T11:55:34.505Z,53.16
2023-02-14T11:58:05.474Z,53.11
2023-02-14T12:00:33.776Z,53.24
2023-02-14T12:03:05.610Z,53.03
2023-02-14T12:05:37.296Z,53.06
2023-02-14T12:08:08.055Z,53.18
2023-02-14T12:10:37.477Z,53.25
2023-02-14T12:13:10.136Z,53.19
2023-02-14T12:15:40.395Z,53.21
2023-02-14T12:18:38.234Z,53.27
2023-02-14T12:21:35.326Z,53.13
2023-02-14T12:24:23.079Z,53.15
2023-02-14T12:27:04.045Z,53.02
2023-02-14T12:29:39.900Z,53.01
2023-02-14T12:32:21.408Z,52.91
2023-02-14T12:34:48.814Z,52.95
2023-02-14T12:37:27.674Z,53.22
2023-02-14T12:40:09.910Z,53.03
2023-02-14T12:42:45.762Z,52.99
2023-02-14T12:45:18.025Z,52.91
2023-02-14T12:48:04.918Z,53.08
2023-02-14T12:50:53.286Z,53.25
2023-02-14T12:53:43.449Z,53.17
2023-02-14T12:56:36.588Z,53.08
2023-02-14T12:59:32.177Z,53.19
2023-02-14T13:02:26.525Z,53.05
2023-02-14T13:04:58.340Z,52.97
2023-02-14T13:07:53.053Z,53.02
2023-02-14T13:10:51.331Z,52.91
2023-02-14T13:13:23.887Z,52.99
2023-02-14T13:16:05.539Z,53.04
2023-02-14T13:18:44.542Z,52.88
2023-02-14T13:21:16.274Z,52.76
2023-02-14T13:23:50.105Z,52.75
2023-02-14T13:26:25.120Z,52.62
2023-02-14T13:29:20.399Z,52.51
2023-02-14T13:31:48.638Z,52.53
2023-02-14T13:34:30.670Z,52.63
2023-02-14T13:36:58.856Z,52.44
2023-02-14T13:39:37.793Z,52.55
2023-02-14T13:42:06.160Z,52.37
2023-02-14T13:44:38.844Z,52.16
2023-02-14T13:47:07.752Z,52.20
2023-02-14T13:49:38.578Z,52.30
2023-02-14T13:52:06.608Z,52.30
2023-02-14T13:54:48.776Z,52.06
2023-02-14T13:57:31.673Z,52.15
2023-02-14T14:00:16.438Z,52.17
2023-02-14T14:02:51.479Z,52.02
2023-02-14T14:05:30.185Z,51.89
2023-02-14T14:08:21.384Z,51.75
2023-02-14T14:10:55.534Z,51.86
2023-02-14T14:13:40.667Z,51.91
2023-02-14T14:16:28.691Z,51.71
2023-02-14T14:18:57.640Z,51.65
2023-02-14T14:21:44.762Z,51.76
2023-02-14T14:24:29.233Z,51.74
2023-02-14T14:27:03.909Z,51.49
2023-02-14T14:29:38.023Z,51.57
2023-02-14T14:32:24.828Z,51.82
2023-02-14T14:34:57.594Z,52.10
2023-02-14T14:37:27.669Z,51.96
2023-02-14T14:39:58.410Z,51.79
2023-02-14T14:42:29.252Z,51.70
2023-02-14T14:45:07.021Z,51.68
2023-02-14T14:47:43.570Z,51.69
2023-02-14T14:50:18.371Z,51.58
2023-02-14T14:53:15.507Z,51.44
2023-02-14T14:55:46.109Z,51.32
2023-02-14T14:58:34.214Z,51.22
2023-02-14T15:01:00.968Z,51.45
2023-02-14T15:03:29.262Z,51.39
2023-02-14T15:06:19.020Z,51.21
2023-02-14T15:08:46.334Z,51.47
2023-02-14T15:11:34.785Z,51.33
2023-02-14T15:14:05.761Z,51.37
2023-02-14T15:16:36.518Z,51.58
2023-02-14T15:19:40.972Z,51.42
2023-02-14T15:22:19.731Z,51.36
2023-02-14T15:24:47.276Z,51.47
2023-02-14T15:27:20.232Z,51.56
2023-02-14T15:30:19.207Z,51.68
2023-02-14T15:32:47.817Z,51.71
2023-02-14T15:35:16.313Z,51.50
2023-02-14T15:37:45.331Z,51.62
2023-02-14T15:40:23.219Z,51.44
2023-02-14T15:42:56.562Z,51.48
2023-02-14T15:45:28.805Z,51.50
2023-02-14T15:47:56.484Z,51.28
2023-02-14T15:50:29.844Z,51.40
2023-02-14T15:53:05.114Z,51.26
2023-02-14T15:55:33.521Z,51.16
2023-02-14T15:58:04.365Z,51.16
2023-02-14T16:00:31.911Z,51.08
2023-02-14T16:03:12.393Z,51.58
2023-02-14T16:05:45.860Z,51.30
2023-02-14T16:08:34.152Z,51.66
2023-02-14T16:11:05.390Z,51.71
2023-02-14T16:13:33.730Z,51.61
2023-02-14T16:16:01.841Z,51.80
2023-02-14T16:18:41.462Z,51.77
2023-02-14T16:21:54.687Z,51.92
2023-02-14T16:24:40.432Z,52.06
2023-02-14T16:27:07.088Z,52.25
2023-02-14T16:29:36.832Z,52.31
2023-02-14T16:32:18.799Z,52.30
2023-02-14T16:34:47.474Z,52.41
2023-02-14T16:37:31.627Z,52.68
2023-02-14T16:40:00.653Z,52.13
2023-02-14T16:42:28.101Z,51.96
2023-02-14T16:44:55.223Z,52.00
2023-02-14T16:47:22.502Z,51.96
2023-02-14T16:49:50.702Z,52.28
2023-02-14T16:52:24.859Z,52.04
2023-02-14T16:54:52.479Z,52.09
2023-02-14T16:57:24.347Z,52.05
2023-02-14T16:59:51.754Z,51.90
2023-02-14T17:02:19.204Z,51.57
2023-02-14T17:04:45.948Z,51.86
2023-02-14T17:07:15.573Z,51.90
2023-02-14T17:09:48.472Z,51.65
2023-02-14T17:12:23.688Z,51.83
2023-02-14T17:14:56.059Z,52.08
2023-02-14T17:17:22.916Z,52.23
2023-02-14T17:19:51.554Z,52.21
2023-02-14T17:22:19.685Z,52.13
2023-02-14T17:24:46.363Z,52.03
2023-02-14T17:27:13.064Z,52.10
2023-02-14T17:29:39.724Z,52.08
2023-02-14T17:32:06.676Z,52.00
2023-02-14T17:34:33.910Z,52.19
2023-02-14T17:37:00.541Z,52.13
2023-02-14T17:39:27.126Z,52.08
2023-02-14T17:41:56.545Z,52.14
2023-02-14T17:44:23.245Z,52.06
2023-02-14T17:46:50.252Z,52.20
2023-02-14T17:49:16.998Z,52.38
2023-02-14T17:51:43.761Z,52.28
2023-02-14T17:54:11.180Z,52.36
2023-02-14T17:56:38.130Z,52.45
2023-02-14T17:59:04.762Z,52.61
2023-02-14T18:01:34.305Z,52.50
2023-02-14T18:04:01.074Z,52.34
2023-02-14T18:06:27.799Z,52.63
2023-02-14T18:08:57.072Z,52.70
2023-02-14T18:11:25.856Z,52.67
2023-02-14T18:13:58.043Z,52.51
2023-02-14T18:16:25.326Z,51.83
2023-02-14T18:18:52.318Z,51.84
2023-02-14T18:21:21.810Z,51.93
2023-02-14T18:23:48.736Z,52.02
2023-02-14T18:26:17.026Z,52.05
2023-02-14T18:28:44.021Z,52.25
2023-02-14T18:31:14.020Z,51.79
2023-02-14T18:33:41.571Z,51.69
2023-02-14T18:36:14.373Z,51.91
2023-02-14T18:38:43.488Z,52.29
2023-02-14T18:41:13.298Z,52.04
2023-02-14T18:43:43.554Z,52.07
2023-02-14T18:46:13.601Z,52.44
2023-02-14T18:48:40.531Z,52.27
2023-02-14T18:51:11.907Z,52.40
2023-02-14T18:53:39.445Z,52.29
2023-02-14T18:56:18.188Z,52.49
2023-02-14T18:58:48.005Z,52.60
2023-02-14T19:01:18.222Z,52.65
2023-02-14T19:03:45.547Z,52.29
2023-02-14T19:06:13.094Z,52.17
2023-02-14T19:08:40.728Z,52.73
2023-02-14T19:11:12.454Z,52.67
2023-02-14T19:13:39.756Z,52.25
2023-02-14T19:16:14.864Z,52.50
2023-02-14T19:18:41.695Z,52.58
2023-02-14T19:21:17.393Z,52.66
2023-02-14T19:23:44.429Z,52.73
2023-02-14T19:26:16.643Z,52.34
2023-02-14T19:28:44.712Z,52.78
2023-02-14T19:31:11.873Z,52.76
2023-02-14T19:33:43.898Z,52.78
2023-02-14T19:36:13.148Z,52.59
2023-02-14T19:38:40.175Z,52.75
2023-02-14T19:41:15.074Z,52.87
2023-02-14T19:43:41.828Z,52.58
2023-02-14T19:46:08.501Z,52.35
2023-02-14T19:48:35.280Z,52.53
2023-02-14T19:51:02.165Z,52.45
2023-02-14T19:53:29.447Z,52.35
2023-02-14T19:55:56.383Z,53.07
2023-02-14T19:58:25.357Z,52.49
2023-02-14T20:01:00.056Z,52.42
2023-02-14T20:03:27.098Z,52.29
2023-02-14T20:05:53.711Z,52.25
2023-02-14T20:08:20.375Z,52.88
2023-02-14T20:10:47.575Z,52.46
2023-02-14T20:13:14.381Z,52.60
2023-02-14T20:15:41.520Z,52.31
2023-02-14T20:18:08.386Z,51.98
2023-02-14T20:20:55.160Z,52.19
2023-02-14T20:23:22.548Z,52.53
2023-02-14T20:25:49.343Z,52.22
2023-02-14T20:28:16.129Z,52.23
2023-02-14T20:30:42.802Z,52.35
2023-02-14T20:33:09.570Z,52.26
2023-02-14T20:35:40.564Z,52.49
2023-02-14T20:38:07.814Z,52.19
2023-02-14T20:40:42.739Z,52.39
2023-02-14T20:43:09.334Z,52.45
2023-02-14T20:45:36.013Z,52.57
2023-02-14T20:48:04.244Z,52.50
2023-02-14T20:50:31.554Z,52.42
2023-02-14T20:52:58.560Z,52.09
2023-02-14T20:55:27.096Z,51.98
2023-02-14T20:57:54.578Z,51.75
2023-02-14T21:00:25.644Z,51.75
2023-02-14T21:02:52.954Z,52.02
2023-02-14T21:05:20.951Z,51.73
2023-02-14T21:07:47.736Z,51.60
2023-02-14T21:10:16.737Z,51.75
2023-02-14T21:12:43.772Z,51.95
2023-02-14T21:15:11.398Z,52.05
2023-02-14T21:17:38.076Z,52.19
2023-02-14T21:20:05.862Z,52.42
2023-02-14T21:22:32.791Z,52.49
2023-02-14T21:24:59.436Z,52.62
2023-02-14T21:27:26.357Z,52.72
2023-02-14T21:29:53.188Z,52.57
2023-02-14T21:32:20.115Z,52.65
2023-02-14T21:34:47.454Z,52.43
2023-02-14T21:37:14.234Z,52.50
2023-02-14T21:39:41.439Z,52.31
2023-02-14T21:42:09.325Z,52.39
2023-02-14T21:44:54.905Z,52.67
2023-02-14T21:47:21.987Z,52.53
2023-02-14T21:50:06.978Z,52.82
2023-02-14T21:52:34.069Z,52.22
2023-02-14T21:55:00.768Z,52.52
2023-02-14T21:57:27.511Z,52.93
2023-02-14T21:59:54.152Z,53.18
2023-02-14T22:02:20.929Z,53.28
2023-02-14T22:04:47.768Z,53.61
2023-02-14T22:07:14.412Z,53.67
2023-02-14T22:09:41.227Z,53.89
2023-02-14T22:12:07.973Z,54.09
2023-02-14T22:14:34.810Z,54.11
2023-02-14T22:17:01.688Z,54.12
2023-02-14T22:19:28.649Z,54.32
2023-02-14T22:21:55.437Z,54.53
2023-02-14T22:24:22.248Z,54.67
2023-02-14T22:26:49.073Z,54.95
2023-02-14T22:29:15.927Z,54.96
2023-02-14T22:31:43.886Z,54.92
2023-02-14T22:34:13.359Z,55.02
2023-02-14T22:36:40.278Z,55.17
2023-02-14T22:39:07.526Z,55.13
2023-02-14T22:41:37.756Z,55.18
2023-02-14T22:44:05.091Z,55.37
2023-02-14T22:46:32.292Z,55.29
2023-02-14T22:48:58.990Z,55.40
2023-02-14T22:51:37.772Z,55.47
2023-02-14T22:54:13.438Z,55.61
2023-02-14T22:56:43.540Z,55.59
2023-02-14T22:59:22.524Z,55.76
2023-02-14T23:01:51.148Z,55.74
2023-02-14T23:04:21.621Z,55.71
2023-02-14T23:06:48.413Z,55.99
2023-02-14T23:09:15.575Z,55.98
2023-02-14T23:11:44.404Z,56.21
2023-02-14T23:14:31.182Z,56.18
2023-02-14T23:17:16.676Z,56.26
2023-02-14T23:20:03.254Z,56.22
2023-02-14T23:22:32.864Z,56.33
2023-02-14T23:25:03.562Z,56.45
2023-02-14T23:27:33.436Z,56.70
2023-02-14T23:30:00.723Z,56.38
2023-02-14T23:32:27.704Z,56.68
2023-02-14T23:34:54.433Z,57.06
2023-02-14T23:37:21.185Z,56.75
2023-02-14T23:39:47.982Z,56.58
2023-02-14T23:42:16.049Z,57.04
2023-02-14T23:44:44.348Z,56.76
2023-02-14T23:47:13.185Z,56.95
2023-02-14T23:49:40.946Z,57.04
2023-02-14T23:52:10.608Z,56.91
2023-02-14T23:54:37.951Z,56.96
2023-02-14T23:57:05.696Z,57.14
2023-02-14T23:59:32.487Z,57.02
